createdAt,value
2023-07-29T00:00:43.231Z,94674.00
2023-07-29T00:01:43.274Z,94676.00
2023-07-29T00:02:43.300Z,94674.00
2023-07-29T00:03:43.308Z,94674.00
2023-07-29T00:04:43.292Z,94672.00
2023-07-29T00:05:43.289Z,94672.00
2023-07-29T00:06:43.309Z,94672.00
2023-07-29T00:07:43.319Z,94674.00
2023-07-29T00:08:43.319Z,94674.00
2023-07-29T00:09:43.351Z,94672.00
2023-07-29T00:10:43.342Z,94672.00
2023-07-29T00:11:43.344Z,94668.00
2023-07-29T00:12:43.363Z,94670.00
2023-07-29T00:13:43.360Z,94670.00
2023-07-29T00:14:43.380Z,94668.00
2023-07-29T00:15:43.426Z,94674.00
2023-07-29T00:16:43.416Z,94672.00
2023-07-29T00:17:43.476Z,94670.00
2023-07-29T00:18:43.429Z,94670.00
2023-07-29T00:19:43.434Z,94670.00
2023-07-29T00:20:43.464Z,94664.00
2023-07-29T00:21:43.454Z,94662.00
2023-07-29T00:22:43.489Z,94666.00
2023-07-29T00:23:43.483Z,94666.00
2023-07-29T00:24:43.490Z,94670.00
2023-07-29T00:25:43.494Z,94668.00
2023-07-29T00:26:43.511Z,94672.00
2023-07-29T00:27:43.527Z,94674.00
2023-07-29T00:28:43.558Z,94678.00
2023-07-29T00:29:43.535Z,94678.00
2023-07-29T00:30:43.577Z,94678.00
2023-07-29T00:31:43.578Z,94682.00
2023-07-29T00:32:43.656Z,94684.00
2023-07-29T00:33:43.594Z,94688.00
2023-07-29T00:34:43.608Z,94690.00
2023-07-29T00:35:43.614Z,94698.00
2023-07-29T00:36:43.651Z,94701.00
2023-07-29T00:37:43.645Z,94705.00
2023-07-29T00:38:43.653Z,94705.00
2023-07-29T00:39:43.653Z,94709.00
2023-07-29T00:40:43.664Z,94709.00
2023-07-29T00:41:43.682Z,94705.00
2023-07-29T00:42:43.683Z,94705.00
2023-07-29T00:43:43.699Z,94699.00
2023-07-29T00:44:43.741Z,94696.00
2023-07-29T00:45:43.711Z,94692.00
2023-07-29T00:46:43.753Z,94686.00
2023-07-29T00:47:43.821Z,94678.00
2023-07-29T00:48:43.884Z,94672.00
2023-07-29T00:49:43.737Z,94670.00
2023-07-29T00:50:43.754Z,94670.00
2023-07-29T00:51:43.765Z,94668.00
2023-07-29T00:52:43.806Z,94668.00
2023-07-29T00:53:43.808Z,94664.00
2023-07-29T00:54:43.808Z,94660.00
2023-07-29T00:55:43.801Z,94656.00
2023-07-29T00:56:43.810Z,94645.00
2023-07-29T00:57:43.812Z,94643.00
2023-07-29T00:58:43.841Z,94641.00
2023-07-29T00:59:43.856Z,94641.00
2023-07-29T01:00:43.875Z,94641.00
2023-07-29T01:01:43.964Z,94635.00
2023-07-29T01:02:43.943Z,94637.00
2023-07-29T01:03:43.960Z,94635.00
2023-07-29T01:04:43.896Z,94635.00
2023-07-29T01:05:43.902Z,94635.00
2023-07-29T01:06:43.932Z,94635.00
2023-07-29T01:07:43.943Z,94633.00
2023-07-29T01:08:43.973Z,94633.00
2023-07-29T01:09:43.963Z,94633.00
2023-07-29T01:10:43.971Z,94629.00
2023-07-29T01:11:43.977Z,94627.00
2023-07-29T01:12:44.049Z,94625.00
2023-07-29T01:13:44.014Z,94621.00
2023-07-29T01:14:44.011Z,94623.00
2023-07-29T01:15:44.074Z,94623.00
2023-07-29T01:16:44.041Z,94625.00
2023-07-29T01:17:44.112Z,94629.00
2023-07-29T01:18:44.063Z,94631.00
2023-07-29T01:19:44.080Z,94633.00
2023-07-29T01:20:44.091Z,94633.00
2023-07-29T01:21:44.097Z,94635.00
2023-07-29T01:22:44.110Z,94633.00
2023-07-29T01:23:44.124Z,94633.00
2023-07-29T01:24:44.123Z,94633.00
2023-07-29T01:25:44.127Z,94633.00
2023-07-29T01:26:44.135Z,94633.00
2023-07-29T01:27:44.149Z,94631.00
2023-07-29T01:28:44.162Z,94629.00
2023-07-29T01:29:44.156Z,94627.00
2023-07-29T01:30:44.183Z,94623.00
2023-07-29T01:31:44.206Z,94621.00
2023-07-29T01:32:44.202Z,94619.00
2023-07-29T01:33:44.195Z,94619.00
2023-07-29T01:34:44.219Z,94617.00
2023-07-29T01:35:44.215Z,94617.00
2023-07-29T01:36:46.164Z,94619.00
2023-07-29T01:37:44.222Z,94617.00
2023-07-29T01:38:44.210Z,94615.00
2023-07-29T01:39:44.206Z,94615.00
2023-07-29T01:40:44.208Z,94613.00
2023-07-29T01:41:44.191Z,94613.00
2023-07-29T01:42:44.180Z,94611.00
2023-07-29T01:43:44.184Z,94609.00
2023-07-29T01:44:44.162Z,94615.00
2023-07-29T01:45:44.198Z,94613.00
2023-07-29T01:46:44.156Z,94613.00
2023-07-29T01:47:44.190Z,94613.00
2023-07-29T01:48:44.184Z,94613.00
2023-07-29T01:49:44.129Z,94613.00
2023-07-29T01:50:44.122Z,94611.00
2023-07-29T01:51:44.121Z,94609.00
2023-07-29T01:52:44.106Z,94609.00
2023-07-29T01:53:44.120Z,94605.00
2023-07-29T01:54:44.095Z,94601.00
2023-07-29T01:55:44.134Z,94601.00
2023-07-29T01:56:44.085Z,94601.00
2023-07-29T01:57:44.071Z,94601.00
2023-07-29T01:58:44.132Z,94601.00
2023-07-29T01:59:44.069Z,94607.00
2023-07-29T02:00:44.078Z,94607.00
2023-07-29T02:01:44.070Z,94611.00
2023-07-29T02:02:44.102Z,94611.00
2023-07-29T02:03:44.043Z,94605.00
2023-07-29T02:04:44.128Z,94603.00
2023-07-29T02:05:44.018Z,94611.00
2023-07-29T02:06:44.031Z,94611.00
2023-07-29T02:07:44.011Z,94605.00
2023-07-29T02:08:44.006Z,94607.00
2023-07-29T02:09:44.008Z,94603.00
2023-07-29T02:10:43.987Z,94605.00
2023-07-29T02:11:43.987Z,94599.00
2023-07-29T02:12:43.991Z,94605.00
2023-07-29T02:13:43.985Z,94605.00
2023-07-29T02:14:43.960Z,94605.00
2023-07-29T02:15:43.957Z,94603.00
2023-07-29T02:16:43.991Z,94599.00
2023-07-29T02:17:44.110Z,94605.00
2023-07-29T02:18:43.961Z,94601.00
2023-07-29T02:19:43.931Z,94601.00
2023-07-29T02:20:43.930Z,94605.00
2023-07-29T02:21:43.925Z,94605.00
2023-07-29T02:22:43.928Z,94605.00
2023-07-29T02:23:43.915Z,94607.00
2023-07-29T02:24:43.908Z,94609.00
2023-07-29T02:25:43.905Z,94609.00
2023-07-29T02:26:43.897Z,94611.00
2023-07-29T02:27:43.894Z,94617.00
2023-07-29T02:28:43.878Z,94619.00
2023-07-29T02:29:43.906Z,94621.00
2023-07-29T02:30:43.875Z,94619.00
2023-07-29T02:31:43.854Z,94621.00
2023-07-29T02:32:43.981Z,94619.00
2023-07-29T02:33:43.895Z,94615.00
2023-07-29T02:34:43.841Z,94619.00
2023-07-29T02:35:43.828Z,94617.00
2023-07-29T02:36:43.826Z,94619.00
2023-07-29T02:37:43.822Z,94621.00
2023-07-29T02:38:43.858Z,94623.00
2023-07-29T02:39:43.825Z,94625.00
2023-07-29T02:40:43.809Z,94627.00
2023-07-29T02:41:43.792Z,94627.00
2023-07-29T02:42:43.793Z,94629.00
2023-07-29T02:43:43.792Z,94629.00
2023-07-29T02:44:43.774Z,94631.00
2023-07-29T02:45:43.765Z,94629.00
2023-07-29T02:46:43.806Z,94627.00
2023-07-29T02:47:43.789Z,94625.00
2023-07-29T02:48:43.773Z,94625.00
2023-07-29T02:49:43.740Z,94625.00
2023-07-29T02:50:43.742Z,94623.00
2023-07-29T02:51:43.717Z,94623.00
2023-07-29T02:52:43.726Z,94619.00
2023-07-29T02:53:43.719Z,94615.00
2023-07-29T02:54:43.728Z,94611.00
2023-07-29T02:55:43.699Z,94611.00
2023-07-29T02:56:43.690Z,94611.00
2023-07-29T02:57:43.684Z,94617.00
2023-07-29T02:58:43.684Z,94615.00
2023-07-29T02:59:43.692Z,94617.00
2023-07-29T03:00:43.694Z,94619.00
2023-07-29T03:01:43.654Z,94619.00
2023-07-29T03:02:43.755Z,94619.00
2023-07-29T03:03:43.716Z,94621.00
2023-07-29T03:04:43.641Z,94617.00
2023-07-29T03:05:43.663Z,94615.00
2023-07-29T03:06:43.627Z,94615.00
2023-07-29T03:07:43.629Z,94613.00
2023-07-29T03:08:43.605Z,94611.00
2023-07-29T03:09:43.599Z,94609.00
2023-07-29T03:10:43.601Z,94609.00
2023-07-29T03:11:43.576Z,94607.00
2023-07-29T03:12:43.575Z,94607.00
2023-07-29T03:13:43.570Z,94601.00
2023-07-29T03:14:43.574Z,94598.00
2023-07-29T03:15:43.560Z,94598.00
2023-07-29T03:16:43.595Z,94596.00
2023-07-29T03:17:43.572Z,94596.00
2023-07-29T03:18:43.543Z,94599.00
2023-07-29T03:19:43.534Z,94598.00
2023-07-29T03:20:43.531Z,94596.00
2023-07-29T03:21:43.524Z,94594.00
2023-07-29T03:22:43.522Z,94594.00
2023-07-29T03:23:43.509Z,94594.00
2023-07-29T03:24:43.499Z,94592.00
2023-07-29T03:25:43.497Z,94594.00
2023-07-29T03:26:46.387Z,94596.00
2023-07-29T03:27:43.484Z,94601.00
2023-07-29T03:28:43.465Z,94603.00
2023-07-29T03:29:43.463Z,94607.00
2023-07-29T03:30:43.533Z,94605.00
2023-07-29T03:31:43.458Z,94605.00
2023-07-29T03:32:43.498Z,94603.00
2023-07-29T03:33:43.449Z,94603.00
2023-07-29T03:34:43.437Z,94605.00
2023-07-29T03:35:43.446Z,94607.00
2023-07-29T03:36:43.446Z,94607.00
2023-07-29T03:37:43.419Z,94607.00
2023-07-29T03:38:43.410Z,94611.00
2023-07-29T03:39:43.405Z,94611.00
2023-07-29T03:40:43.419Z,94613.00
2023-07-29T03:41:43.418Z,94611.00
2023-07-29T03:42:43.390Z,94611.00
2023-07-29T03:43:43.422Z,94613.00
2023-07-29T03:44:43.453Z,94619.00
2023-07-29T03:45:43.455Z,94621.00
2023-07-29T03:46:43.486Z,94621.00
2023-07-29T03:47:43.472Z,94625.00
2023-07-29T03:48:43.440Z,94627.00
2023-07-29T03:49:43.412Z,94625.00
2023-07-29T03:50:43.414Z,94627.00
2023-07-29T03:51:43.457Z,94627.00
2023-07-29T03:52:43.325Z,94625.00
2023-07-29T03:53:43.311Z,94623.00
2023-07-29T03:54:43.349Z,94621.00
2023-07-29T03:55:43.321Z,94619.00
2023-07-29T03:56:43.290Z,94617.00
2023-07-29T03:57:43.284Z,94621.00
2023-07-29T03:58:43.277Z,94619.00
2023-07-29T03:59:43.267Z,94621.00
2023-07-29T04:00:43.271Z,94623.00
2023-07-29T04:01:43.330Z,94625.00
2023-07-29T04:02:43.272Z,94629.00
2023-07-29T04:03:43.283Z,94627.00
2023-07-29T04:04:43.282Z,94631.00
2023-07-29T04:05:43.238Z,94629.00
2023-07-29T04:06:43.229Z,94633.00
2023-07-29T04:07:43.205Z,94631.00
2023-07-29T04:08:43.214Z,94627.00
2023-07-29T04:09:43.209Z,94625.00
2023-07-29T04:10:43.196Z,94627.00
2023-07-29T04:11:43.183Z,94629.00
2023-07-29T04:12:43.179Z,94631.00
2023-07-29T04:13:43.171Z,94633.00
2023-07-29T04:14:43.169Z,94633.00
2023-07-29T04:15:43.200Z,94633.00
2023-07-29T04:16:43.187Z,94633.00
2023-07-29T04:17:43.206Z,94633.00
2023-07-29T04:18:43.160Z,94631.00
2023-07-29T04:19:43.130Z,94627.00
2023-07-29T04:20:43.162Z,94627.00
2023-07-29T04:21:43.134Z,94627.00
2023-07-29T04:22:43.111Z,94625.00
2023-07-29T04:23:43.104Z,94625.00
2023-07-29T04:24:43.090Z,94623.00
2023-07-29T04:25:43.081Z,94621.00
2023-07-29T04:26:43.095Z,94625.00
2023-07-29T04:27:43.075Z,94627.00
2023-07-29T04:28:43.082Z,94627.00
2023-07-29T04:29:43.067Z,94623.00
2023-07-29T04:30:43.063Z,94623.00
2023-07-29T04:31:43.107Z,94629.00
2023-07-29T04:32:43.105Z,94627.00
2023-07-29T04:33:43.046Z,94627.00
2023-07-29T04:34:43.040Z,94621.00
2023-07-29T04:35:43.038Z,94623.00
2023-07-29T04:36:43.021Z,94625.00
2023-07-29T04:37:43.029Z,94625.00
2023-07-29T04:38:43.022Z,94627.00
2023-07-29T04:39:43.021Z,94623.00
2023-07-29T04:40:43.004Z,94623.00
2023-07-29T04:41:42.985Z,94619.00
2023-07-29T04:42:42.983Z,94617.00
2023-07-29T04:43:42.961Z,94615.00
2023-07-29T04:44:42.988Z,94615.00
2023-07-29T04:45:43.026Z,94617.00
2023-07-29T04:46:42.950Z,94613.00
2023-07-29T04:47:42.977Z,94613.00
2023-07-29T04:48:42.951Z,94611.00
2023-07-29T04:49:42.934Z,94611.00
2023-07-29T04:50:42.928Z,94613.00
2023-07-29T04:51:42.911Z,94615.00
2023-07-29T04:52:42.900Z,94619.00
2023-07-29T04:53:42.916Z,94619.00
2023-07-29T04:54:42.892Z,94623.00
2023-07-29T04:55:42.879Z,94627.00
2023-07-29T04:56:42.872Z,94627.00
2023-07-29T04:57:42.876Z,94627.00
2023-07-29T04:58:42.874Z,94629.00
2023-07-29T04:59:42.861Z,94625.00
2023-07-29T05:00:42.869Z,94627.00
2023-07-29T05:01:42.953Z,94625.00
2023-07-29T05:02:42.864Z,94623.00
2023-07-29T05:03:42.825Z,94621.00
2023-07-29T05:04:42.858Z,94619.00
2023-07-29T05:05:42.802Z,94617.00
2023-07-29T05:06:42.794Z,94615.00
2023-07-29T05:07:42.797Z,94615.00
2023-07-29T05:08:42.796Z,94617.00
2023-07-29T05:09:42.786Z,94613.00
2023-07-29T05:10:42.789Z,94617.00
2023-07-29T05:11:42.789Z,94615.00
2023-07-29T05:12:42.765Z,94615.00
2023-07-29T05:13:42.752Z,94615.00
2023-07-29T05:14:42.766Z,94615.00
2023-07-29T05:15:42.780Z,94615.00
2023-07-29T05:16:42.745Z,94613.00
2023-07-29T05:17:42.823Z,94613.00
2023-07-29T05:18:42.778Z,94611.00
2023-07-29T05:19:42.769Z,94609.00
2023-07-29T05:20:42.777Z,94609.00
2023-07-29T05:21:42.854Z,94603.00
2023-07-29T05:22:42.803Z,94603.00
2023-07-29T05:23:42.827Z,94601.00
2023-07-29T05:24:42.830Z,94599.00
2023-07-29T05:25:42.863Z,94596.00
2023-07-29T05:26:42.878Z,94594.00
2023-07-29T05:27:42.883Z,94590.00
2023-07-29T05:28:42.892Z,94584.00
2023-07-29T05:29:42.950Z,94588.00
2023-07-29T05:30:42.947Z,94586.00
2023-07-29T05:31:42.964Z,94590.00
2023-07-29T05:32:43.041Z,94592.00
2023-07-29T05:33:43.042Z,94596.00
2023-07-29T05:34:43.002Z,94598.00
2023-07-29T05:35:43.004Z,94599.00
2023-07-29T05:36:43.034Z,94599.00
2023-07-29T05:37:43.045Z,94598.00
2023-07-29T05:38:43.056Z,94599.00
2023-07-29T05:39:43.062Z,94599.00
2023-07-29T05:40:43.073Z,94599.00
2023-07-29T05:41:43.099Z,94599.00
2023-07-29T05:42:43.148Z,94601.00
2023-07-29T05:43:43.133Z,94603.00
2023-07-29T05:44:43.128Z,94603.00
2023-07-29T05:45:43.138Z,94607.00
2023-07-29T05:46:43.179Z,94607.00
2023-07-29T05:47:43.212Z,94609.00
2023-07-29T05:48:43.192Z,94609.00
2023-07-29T05:49:43.201Z,94613.00
2023-07-29T05:50:43.231Z,94615.00
2023-07-29T05:51:43.210Z,94615.00
2023-07-29T05:52:43.232Z,94617.00
2023-07-29T05:53:43.239Z,94623.00
2023-07-29T05:54:43.267Z,94623.00
2023-07-29T05:55:43.276Z,94619.00
2023-07-29T05:56:43.290Z,94619.00
2023-07-29T05:57:44.529Z,94617.00
2023-07-29T05:58:43.307Z,94615.00
2023-07-29T05:59:43.310Z,94615.00
2023-07-29T06:00:43.354Z,94615.00
2023-07-29T06:01:43.347Z,94615.00
2023-07-29T06:02:43.422Z,94617.00
2023-07-29T06:03:43.433Z,94617.00
2023-07-29T06:04:43.374Z,94617.00
2023-07-29T06:05:43.385Z,94615.00
2023-07-29T06:06:43.393Z,94615.00
2023-07-29T06:07:43.420Z,94609.00
2023-07-29T06:08:43.430Z,94609.00
2023-07-29T06:09:43.431Z,94609.00
2023-07-29T06:10:43.447Z,94611.00
2023-07-29T06:11:43.459Z,94613.00
2023-07-29T06:12:43.473Z,94613.00
2023-07-29T06:13:43.491Z,94613.00
2023-07-29T06:14:43.505Z,94613.00
2023-07-29T06:15:43.556Z,94611.00
2023-07-29T06:16:43.583Z,94611.00
2023-07-29T06:17:43.596Z,94605.00
2023-07-29T06:18:43.559Z,94605.00
2023-07-29T06:19:43.568Z,94607.00
2023-07-29T06:20:43.585Z,94605.00
2023-07-29T06:21:43.611Z,94609.00
2023-07-29T06:22:43.633Z,94609.00
2023-07-29T06:23:43.623Z,94611.00
2023-07-29T06:24:43.651Z,94613.00
2023-07-29T06:25:43.668Z,94609.00
2023-07-29T06:26:43.692Z,94611.00
2023-07-29T06:27:43.703Z,94613.00
2023-07-29T06:28:43.701Z,94615.00
2023-07-29T06:29:43.728Z,94615.00
2023-07-29T06:30:43.762Z,94615.00
2023-07-29T06:31:43.740Z,94613.00
2023-07-29T06:32:43.786Z,94615.00
2023-07-29T06:33:43.763Z,94613.00
2023-07-29T06:34:43.775Z,94611.00
2023-07-29T06:35:43.799Z,94609.00
2023-07-29T06:36:43.809Z,94609.00
2023-07-29T06:37:43.828Z,94609.00
2023-07-29T06:38:43.837Z,94607.00
2023-07-29T06:39:43.855Z,94605.00
2023-07-29T06:40:43.887Z,94611.00
2023-07-29T06:41:43.868Z,94609.00
2023-07-29T06:42:43.920Z,94609.00
2023-07-29T06:43:43.908Z,94607.00
2023-07-29T06:44:43.919Z,94603.00
2023-07-29T06:45:43.925Z,94603.00
2023-07-29T06:46:43.955Z,94599.00
2023-07-29T06:47:44.004Z,94599.00
2023-07-29T06:48:43.973Z,94601.00
2023-07-29T06:49:43.977Z,94603.00
2023-07-29T06:50:43.989Z,94605.00
2023-07-29T06:51:44.003Z,94603.00
2023-07-29T06:52:44.029Z,94601.00
2023-07-29T06:53:44.027Z,94599.00
2023-07-29T06:54:44.045Z,94596.00
2023-07-29T06:55:44.057Z,94594.00
2023-07-29T06:56:44.073Z,94596.00
2023-07-29T06:57:44.082Z,94598.00
2023-07-29T06:58:44.114Z,94598.00
2023-07-29T06:59:44.125Z,94596.00
2023-07-29T07:00:44.111Z,94596.00
2023-07-29T07:01:44.196Z,94599.00
2023-07-29T07:02:44.310Z,94599.00
2023-07-29T07:03:44.196Z,94601.00
2023-07-29T07:04:44.186Z,94603.00
2023-07-29T07:05:44.187Z,94603.00
2023-07-29T07:06:44.199Z,94603.00
2023-07-29T07:07:44.226Z,94603.00
2023-07-29T07:08:44.231Z,94599.00
2023-07-29T07:09:44.227Z,94599.00
2023-07-29T07:10:44.261Z,94596.00
2023-07-29T07:11:44.274Z,94596.00
2023-07-29T07:12:44.278Z,94596.00
2023-07-29T07:13:44.301Z,94594.00
2023-07-29T07:14:44.303Z,94592.00
2023-07-29T07:15:44.341Z,94586.00
2023-07-29T07:16:44.404Z,94586.00
2023-07-29T07:17:44.403Z,94586.00
2023-07-29T07:18:44.376Z,94588.00
2023-07-29T07:19:44.399Z,94588.00
2023-07-29T07:20:44.407Z,94590.00
2023-07-29T07:21:44.420Z,94588.00
2023-07-29T07:22:44.458Z,94588.00
2023-07-29T07:23:44.484Z,94588.00
2023-07-29T07:24:44.465Z,94588.00
2023-07-29T07:25:44.488Z,94590.00
2023-07-29T07:26:44.514Z,94594.00
2023-07-29T07:27:44.611Z,94594.00
2023-07-29T07:28:44.519Z,94594.00
2023-07-29T07:29:44.537Z,94594.00
2023-07-29T07:30:44.549Z,94596.00
2023-07-29T07:31:44.623Z,94590.00
2023-07-29T07:32:44.601Z,94588.00
2023-07-29T07:33:44.582Z,94586.00
2023-07-29T07:34:44.597Z,94582.00
2023-07-29T07:35:44.607Z,94580.00
2023-07-29T07:36:45.634Z,94578.00
2023-07-29T07:37:44.646Z,94574.00
2023-07-29T07:38:44.652Z,94572.00
2023-07-29T07:39:44.651Z,94570.00
2023-07-29T07:40:44.661Z,94568.00
2023-07-29T07:41:44.690Z,94566.00
2023-07-29T07:42:44.697Z,94568.00
2023-07-29T07:43:44.723Z,94568.00
2023-07-29T07:44:44.727Z,94570.00
2023-07-29T07:45:44.787Z,94572.00
2023-07-29T07:46:44.768Z,94568.00
2023-07-29T07:47:44.821Z,94566.00
2023-07-29T07:48:44.814Z,94564.00
2023-07-29T07:49:44.810Z,94562.00
2023-07-29T07:50:44.838Z,94558.00
2023-07-29T07:51:44.849Z,94558.00
2023-07-29T07:52:44.863Z,94554.00
2023-07-29T07:53:44.881Z,94551.00
2023-07-29T07:54:44.877Z,94547.00
2023-07-29T07:55:44.896Z,94547.00
2023-07-29T07:56:44.900Z,94549.00
2023-07-29T07:57:44.974Z,94549.00
2023-07-29T07:58:44.941Z,94549.00
2023-07-29T07:59:44.957Z,94552.00
2023-07-29T08:00:44.973Z,94552.00
2023-07-29T08:01:45.087Z,94552.00
2023-07-29T08:02:45.134Z,94552.00
2023-07-29T08:03:45.061Z,94554.00
2023-07-29T08:04:45.060Z,94556.00
2023-07-29T08:05:45.029Z,94560.00
2023-07-29T08:06:45.040Z,94560.00
2023-07-29T08:07:45.064Z,94562.00
2023-07-29T08:08:45.071Z,94564.00
2023-07-29T08:09:45.089Z,94564.00
2023-07-29T08:10:45.085Z,94564.00
2023-07-29T08:11:45.089Z,94560.00
2023-07-29T08:12:45.113Z,94560.00
2023-07-29T08:13:45.118Z,94552.00
2023-07-29T08:14:45.137Z,94552.00
2023-07-29T08:15:45.148Z,94551.00
2023-07-29T08:16:45.159Z,94547.00
2023-07-29T08:17:45.196Z,94552.00
2023-07-29T08:18:45.192Z,94549.00
2023-07-29T08:19:45.227Z,94547.00
2023-07-29T08:20:45.203Z,94549.00
2023-07-29T08:21:45.227Z,94549.00
2023-07-29T08:22:45.245Z,94549.00
2023-07-29T08:23:45.249Z,94554.00
2023-07-29T08:24:45.265Z,94554.00
2023-07-29T08:25:45.268Z,94558.00
2023-07-29T08:26:45.278Z,94558.00
2023-07-29T08:27:45.305Z,94560.00
2023-07-29T08:28:45.308Z,94560.00
2023-07-29T08:29:45.304Z,94558.00
2023-07-29T08:30:45.333Z,94558.00
2023-07-29T08:31:45.393Z,94552.00
2023-07-29T08:32:45.389Z,94558.00
2023-07-29T08:33:45.361Z,94560.00
2023-07-29T08:34:45.437Z,94560.00
2023-07-29T08:35:45.385Z,94560.00
2023-07-29T08:36:45.393Z,94560.00
2023-07-29T08:37:45.403Z,94558.00
2023-07-29T08:38:45.417Z,94558.00
2023-07-29T08:39:45.479Z,94558.00
2023-07-29T08:40:45.437Z,94554.00
2023-07-29T08:41:45.443Z,94551.00
2023-07-29T08:42:45.467Z,94551.00
2023-07-29T08:43:45.471Z,94543.00
2023-07-29T08:44:45.492Z,94545.00
2023-07-29T08:45:45.489Z,94541.00
2023-07-29T08:46:45.629Z,94539.00
2023-07-29T08:47:45.540Z,94539.00
2023-07-29T08:48:45.547Z,94537.00
2023-07-29T08:49:45.544Z,94537.00
2023-07-29T08:50:45.553Z,94537.00
2023-07-29T08:51:45.580Z,94535.00
2023-07-29T08:52:45.593Z,94533.00
2023-07-29T08:53:45.596Z,94529.00
2023-07-29T08:54:45.613Z,94529.00
2023-07-29T08:55:45.612Z,94525.00
2023-07-29T08:56:45.648Z,94523.00
2023-07-29T08:57:45.646Z,94523.00
2023-07-29T08:58:45.652Z,94525.00
2023-07-29T08:59:45.689Z,94523.00
2023-07-29T09:00:45.695Z,94523.00
2023-07-29T09:01:45.690Z,94523.00
2023-07-29T09:02:45.761Z,94521.00
2023-07-29T09:03:45.818Z,94521.00
2023-07-29T09:04:45.764Z,94519.00
2023-07-29T09:05:45.735Z,94521.00
2023-07-29T09:06:45.748Z,94521.00
2023-07-29T09:07:45.762Z,94519.00
2023-07-29T09:08:45.804Z,94519.00
2023-07-29T09:09:45.777Z,94519.00
2023-07-29T09:10:45.805Z,94515.00
2023-07-29T09:11:45.819Z,94517.00
2023-07-29T09:12:45.822Z,94517.00
2023-07-29T09:13:45.860Z,94515.00
2023-07-29T09:14:45.844Z,94513.00
2023-07-29T09:15:45.858Z,94511.00
2023-07-29T09:16:45.924Z,94507.00
2023-07-29T09:17:45.894Z,94507.00
2023-07-29T09:18:45.884Z,94504.00
2023-07-29T09:19:45.892Z,94504.00
2023-07-29T09:20:45.928Z,94500.00
2023-07-29T09:21:45.956Z,94500.00
2023-07-29T09:22:45.927Z,94504.00
2023-07-29T09:23:45.950Z,94502.00
2023-07-29T09:24:45.957Z,94500.00
2023-07-29T09:25:45.968Z,94502.00
2023-07-29T09:26:45.981Z,94502.00
2023-07-29T09:27:45.996Z,94504.00
2023-07-29T09:28:45.999Z,94502.00
2023-07-29T09:29:46.010Z,94502.00
2023-07-29T09:30:46.068Z,94502.00
2023-07-29T09:31:46.037Z,94500.00
2023-07-29T09:32:46.070Z,94492.00
2023-07-29T09:33:46.109Z,94486.00
2023-07-29T09:34:46.080Z,94482.00
2023-07-29T09:35:46.084Z,94478.00
2023-07-29T09:36:46.092Z,94478.00
2023-07-29T09:37:46.110Z,94478.00
2023-07-29T09:38:46.117Z,94476.00
2023-07-29T09:39:46.122Z,94474.00
2023-07-29T09:40:46.144Z,94474.00
2023-07-29T09:41:47.817Z,94478.00
2023-07-29T09:42:46.132Z,94476.00
2023-07-29T09:43:46.123Z,94474.00
2023-07-29T09:44:46.135Z,94468.00
2023-07-29T09:45:46.128Z,94468.00
2023-07-29T09:46:46.141Z,94470.00
2023-07-29T09:47:46.140Z,94470.00
2023-07-29T09:48:46.100Z,94472.00
2023-07-29T09:49:46.098Z,94472.00
2023-07-29T09:50:46.098Z,94476.00
2023-07-29T09:51:46.068Z,94476.00
2023-07-29T09:52:46.073Z,94478.00
2023-07-29T09:53:47.445Z,94480.00
2023-07-29T09:54:46.059Z,94476.00
2023-07-29T09:55:46.072Z,94472.00
2023-07-29T09:56:46.093Z,94476.00
2023-07-29T09:57:46.023Z,94474.00
2023-07-29T09:58:46.036Z,94472.00
2023-07-29T09:59:46.011Z,94470.00
2023-07-29T10:00:46.018Z,94470.00
2023-07-29T10:01:46.026Z,94466.00
2023-07-29T10:02:46.071Z,94470.00
2023-07-29T10:03:46.030Z,94470.00
2023-07-29T10:04:45.989Z,94468.00
2023-07-29T10:05:45.988Z,94466.00
2023-07-29T10:06:45.975Z,94466.00
2023-07-29T10:07:45.962Z,94462.00
2023-07-29T10:08:45.968Z,94464.00
2023-07-29T10:09:45.960Z,94460.00
2023-07-29T10:10:46.000Z,94458.00
2023-07-29T10:11:45.961Z,94458.00
2023-07-29T10:12:45.940Z,94455.00
2023-07-29T10:13:56.583Z,94457.00
2023-07-29T10:14:46.924Z,94457.00
2023-07-29T10:15:45.917Z,94455.00
2023-07-29T10:16:45.932Z,94455.00
2023-07-29T10:17:48.334Z,94453.00
2023-07-29T10:18:45.889Z,94451.00
2023-07-29T10:19:45.887Z,94447.00
2023-07-29T10:20:45.895Z,94447.00
2023-07-29T10:21:45.897Z,94447.00
2023-07-29T10:22:45.876Z,94449.00
2023-07-29T10:23:45.871Z,94447.00
2023-07-29T10:24:45.858Z,94445.00
2023-07-29T10:25:45.854Z,94445.00
2023-07-29T10:26:45.860Z,94441.00
2023-07-29T10:27:45.829Z,94435.00
2023-07-29T10:28:45.824Z,94435.00
2023-07-29T10:29:45.842Z,94429.00
2023-07-29T10:30:45.830Z,94433.00
2023-07-29T10:31:45.816Z,94435.00
2023-07-29T10:32:46.016Z,94433.00
2023-07-29T10:33:45.930Z,94427.00
2023-07-29T10:34:45.791Z,94427.00
2023-07-29T10:35:45.807Z,94427.00
2023-07-29T10:36:45.779Z,94425.00
2023-07-29T10:37:45.768Z,94427.00
2023-07-29T10:38:45.773Z,94425.00
2023-07-29T10:39:45.749Z,94425.00
2023-07-29T10:40:45.747Z,94423.00
2023-07-29T10:41:45.746Z,94425.00
2023-07-29T10:42:45.744Z,94423.00
2023-07-29T10:43:45.719Z,94423.00
2023-07-29T10:44:45.719Z,94421.00
2023-07-29T10:45:45.771Z,94419.00
2023-07-29T10:46:45.791Z,94416.00
2023-07-29T10:47:45.738Z,94416.00
2023-07-29T10:48:45.694Z,94413.00
2023-07-29T10:49:45.683Z,94413.00
2023-07-29T10:50:45.685Z,94411.00
2023-07-29T10:51:47.577Z,94413.00
2023-07-29T10:52:45.663Z,94410.00
2023-07-29T10:53:45.661Z,94410.00
2023-07-29T10:54:45.671Z,94413.00
2023-07-29T10:55:45.656Z,94408.00
2023-07-29T10:56:45.676Z,94406.00
2023-07-29T10:57:45.637Z,94406.00
2023-07-29T10:58:45.636Z,94404.00
2023-07-29T10:59:45.624Z,94404.00
2023-07-29T11:00:45.633Z,94400.00
2023-07-29T11:01:45.666Z,94396.00
2023-07-29T11:02:45.664Z,94396.00
2023-07-29T11:03:45.601Z,94388.00
2023-07-29T11:04:45.622Z,94386.00
2023-07-29T11:05:45.584Z,94388.00
2023-07-29T11:06:45.584Z,94386.00
2023-07-29T11:07:45.575Z,94378.00
2023-07-29T11:08:45.582Z,94382.00
2023-07-29T11:09:45.576Z,94380.00
2023-07-29T11:10:45.560Z,94378.00
2023-07-29T11:11:45.557Z,94378.00
2023-07-29T11:12:45.541Z,94370.00
2023-07-29T11:13:45.547Z,94374.00
2023-07-29T11:14:45.529Z,94366.00
2023-07-29T11:15:45.546Z,94368.00
2023-07-29T11:16:45.545Z,94368.00
2023-07-29T11:17:45.555Z,94363.00
2023-07-29T11:18:45.504Z,94357.00
2023-07-29T11:19:45.503Z,94355.00
2023-07-29T11:20:45.488Z,94355.00
2023-07-29T11:21:45.483Z,94351.00
2023-07-29T11:22:45.486Z,94351.00
2023-07-29T11:23:45.485Z,94353.00
2023-07-29T11:24:45.501Z,94355.00
2023-07-29T11:25:45.462Z,94355.00
2023-07-29T11:26:45.461Z,94353.00
2023-07-29T11:27:45.476Z,94355.00
2023-07-29T11:28:45.511Z,94353.00
2023-07-29T11:29:45.432Z,94351.00
2023-07-29T11:30:45.437Z,94349.00
2023-07-29T11:31:45.471Z,94353.00
2023-07-29T11:32:45.481Z,94351.00
2023-07-29T11:33:45.407Z,94349.00
2023-07-29T11:34:45.401Z,94345.00
2023-07-29T11:35:45.397Z,94343.00
2023-07-29T11:36:45.402Z,94347.00
2023-07-29T11:37:45.386Z,94345.00
2023-07-29T11:38:45.375Z,94337.00
2023-07-29T11:39:45.381Z,94335.00
2023-07-29T11:40:45.362Z,94339.00
2023-07-29T11:41:45.350Z,94335.00
2023-07-29T11:42:45.350Z,94331.00
2023-07-29T11:43:45.336Z,94329.00
2023-07-29T11:44:45.345Z,94323.00